Flight Track Log - Related Links

Times and Time Zones

All times are in EDT time to prevent confusion due to time zone crossing. See the EJA221 flight status page for this flight to view local times or setup timezone preferences in your user account.

Time Position Orientation Groundspeed Altitude Reporting Facility
EDT Latitude Longitude Course Direction KTS MPH feet Rate Location/Type
Thu 01:22:30 PM 39.6000 -104.8500 333° Northwest 183 211 6,600  Level Denver TRACON
Thu 01:23:30 PM 39.6500 -104.8833 333° Northwest 235 270 8,000 1,213 Climbing Denver TRACON
Thu 01:24:04 PM 39.6761 -104.9269 308° West 272 313 8,500 1,188 Climbing Denver Center
Thu 01:25:06 PM 39.7258 -104.9914 315° West 286 329 9,900 1,839 Climbing Denver Center
Thu 01:26:08 PM 39.8106 -104.9914 360° North 284 327 12,300 2,419 Climbing Denver Center
Thu 01:27:10 PM 39.8711 -105.0528 322° Northwest 309 356 14,900 1,984 Climbing Denver Center
Thu 01:28:12 PM 39.8394 -105.1783 252° West 351 404 16,400 1,500 Climbing Denver Center
Thu 01:29:14 PM 39.8025 -105.3100 250° West 386 444 18,000 1,694 Climbing Denver Center
Thu 01:30:16 PM 39.7619 -105.4453 249° West 403 464 19,900 1,645 Climbing Denver Center
Thu 01:31:18 PM 39.7275 -105.5603 249° West 405 466 21,400 1,645 Climbing Denver Center
Thu 01:32:20 PM 39.6628 -105.7264 243° Southwest 423 487 23,300 1,597 Climbing Denver Center
Thu 01:33:22 PM 39.6544 -105.8783 266° West 418 481 24,700 1,355 Climbing Denver Center
Thu 01:34:24 PM 39.6442 -106.0397 265° West 445 512 26,100 1,440 Climbing Denver Center
Thu 01:35:27 PM 39.6319 -106.2242 265° West 461 531 27,700 1,392 Climbing Denver Center
Thu 01:36:29 PM 39.6025 -106.3917 257° West 481 554 29,000 1,452 Climbing Denver Center
Thu 01:37:31 PM 39.5431 -106.5725 247° West 485 558 30,700 1,887 Climbing Denver Center
Thu 01:38:33 PM 39.4925 -106.7286 247° West 490 564 32,900 1,984 Climbing Denver Center
Thu 01:39:35 PM 39.4331 -106.9097 247° West 489 563 34,800 1,839 Climbing Denver Center
Thu 01:40:37 PM 39.3961 -107.0689 253° West 483 556 36,700 1,935 Climbing Denver Center
Thu 01:41:39 PM 39.3497 -107.2500 252° West 476 548 38,800 1,597 Climbing Denver Center
Thu 01:42:41 PM 39.3106 -107.4050 252° West 470 541 40,000 581 Climbing Denver Center
Thu 01:43:43 PM 39.2700 -107.5642 252° West 482 555 40,000  Level Denver Center
Thu 01:44:45 PM 39.2217 -107.7508 252° West 490 564 40,000  Level Denver Center
Thu 01:45:47 PM 39.1800 -107.9106 251° West 486 559 40,000  Level Denver Center
Thu 01:46:49 PM 39.1314 -108.0975 252° West 488 562 40,000  Level Denver Center
Thu 01:47:52 PM 39.0900 -108.2575 252° West 490 564 40,000  Level Denver Center
Thu 01:48:54 PM 39.0381 -108.4464 251° West 500 575 40,000  Level Denver Center
Thu 01:50:08 PM 38.9964 -108.6111 252° West 500 575 40,000  Level Denver Center
Thu 01:51:10 PM 38.9394 -108.8211 251° West 485 558 40,000  Level Denver Center
Thu 01:52:12 PM 38.8969 -108.9783 251° West 485 558 40,000  Level Denver Center
Thu 01:53:14 PM 38.8619 -109.1128 252° West 493 567 40,000  Level Denver Center
Thu 01:54:16 PM 38.8047 -109.3225 251° West 491 565 40,000  Level Denver Center
Thu 01:55:18 PM 38.7533 -109.5050 250° West 484 557 40,000  Level Denver Center
Thu 01:56:20 PM 38.7172 -109.6339 250° West 481 554 40,000  Level Denver Center
Thu 01:57:23 PM 38.6600 -109.8422 251° West 485 558 40,000  Level Denver Center
Thu 01:58:25 PM 38.6158 -109.9958 250° West 482 555 40,000  Level Denver Center
Thu 01:59:27 PM 38.5556 -110.1422 242° Southwest 489 563 40,000  Level Denver Center
Thu 02:00:29 PM 38.4683 -110.3017 235° Southwest 490 564 40,000  Level Denver Center
Thu 02:01:31 PM 38.3947 -110.4378 235° Southwest 489 563 40,000  Level Denver Center
Thu 02:02:33 PM 38.3078 -110.5950 235° Southwest 487 560 40,000  Level Denver Center
Thu 02:03:35 PM 38.2344 -110.7294 235° Southwest 484 557 40,000  Level Denver Center
Thu 02:04:37 PM 38.1478 -110.8869 235° Southwest 485 558 40,000  Level Denver Center
Thu 02:05:39 PM 38.0669 -111.0339 235° Southwest 483 556 40,000  Level Denver Center
Thu 02:06:41 PM 37.9900 -111.1708 235° Southwest 479 551 40,000  Level Denver Center
Thu 02:07:43 PM 37.9133 -111.3108 235° Southwest 482 555 40,000  Level Denver Center
Thu 02:08:45 PM 37.8344 -111.4475 234° Southwest 480 552 40,000  Level Denver Center
Thu 02:09:47 PM 37.7569 -111.5867 235° Southwest 483 556 40,000  Level Denver Center
Thu 02:10:50 PM 37.6789 -111.7244 234° Southwest 482 555 40,000  Level Denver Center
Thu 02:11:52 PM 37.5864 -111.8889 235° Southwest 480 552 40,000  Level Denver Center
Thu 02:12:54 PM 37.5075 -112.0250 234° Southwest 481 554 40,000  Level Denver Center
Thu 02:13:56 PM 37.4306 -112.1625 235° Southwest 479 551 40,000  Level Denver Center
Thu 02:15:25 PM 37.3169 -112.3539 233° Southwest 482 555 40,000  Level Los Angeles Center
Thu 02:16:27 PM 37.2386 -112.4908 234° Southwest 480 552 40,000  Level Los Angeles Center
Thu 02:17:30 PM 37.1442 -112.6547 234° Southwest 480 552 40,000  Level Los Angeles Center
Thu 02:18:32 PM 37.0642 -112.7906 234° Southwest 481 554 40,000  Level Los Angeles Center
Thu 02:19:34 PM 36.9850 -112.9261 234° Southwest 481 554 40,000  Level Los Angeles Center
Thu 02:20:36 PM 36.9064 -113.0597 234° Southwest 478 550 40,000  Level Los Angeles Center
Thu 02:21:38 PM 36.8286 -113.1925 234° Southwest 475 547 40,000  Level Los Angeles Center
Thu 02:22:40 PM 36.7503 -113.3244 233° Southwest 473 544 40,000  Level Los Angeles Center
Thu 02:23:42 PM 36.6714 -113.4564 233° Southwest 475 547 40,000  Level Los Angeles Center
Thu 02:24:44 PM 36.5772 -113.6139 233° Southwest 473 544 40,000  Level Los Angeles Center
Thu 02:25:46 PM 36.4958 -113.7492 233° Southwest 472 543 40,000  Level Los Angeles Center
Thu 02:26:49 PM 36.4178 -113.8803 234° Southwest 471 542 40,000  Level Los Angeles Center
Thu 02:27:51 PM 36.3386 -114.0094 233° Southwest 470 541 40,000  Level Los Angeles Center
Thu 02:28:53 PM 36.2600 -114.1400 233° Southwest 470 541 40,000 -48 Level Los Angeles Center
Thu 02:29:55 PM 36.1800 -114.2683 232° Southwest 469 540 39,900 -726 Descending Los Angeles Center
Thu 02:30:57 PM 36.1019 -114.3958 233° Southwest 465 535 38,500 -1,548 Descending Los Angeles Center
Thu 02:31:59 PM 36.0086 -114.5522 234° Southwest 469 540 36,700 -1,597 Descending Los Angeles Center
Thu 02:33:01 PM 35.9275 -114.6819 232° Southwest 475 547 35,200 -1,500 Descending Los Angeles Center
Thu 02:34:03 PM 35.8464 -114.8136 233° Southwest 479 551 33,600 -1,488 Descending Los Angeles Center
Thu 02:35:06 PM 35.7639 -114.9436 232° Southwest 479 551 32,100 -768 Descending Los Angeles Center
Thu 02:36:08 PM 35.6811 -115.0778 233° Southwest 488 562 32,000 -48 Descending Los Angeles Center
Thu 02:37:10 PM 35.5983 -115.2106 233° Southwest 487 560 32,000 -194 Level Los Angeles Center
Thu 02:38:12 PM 35.5161 -115.3400 232° Southwest 480 552 31,600 -677 Descending Los Angeles Center
Thu 02:39:14 PM 35.4411 -115.4589 232° Southwest 448 516 30,600 -1,016 Descending Los Angeles Center
Thu 02:40:16 PM 35.3631 -115.5833 232° Southwest 432 497 29,500 -1,016 Descending Los Angeles Center
Thu 02:41:18 PM 35.2897 -115.6989 232° Southwest 429 494 28,500 -1,027 Descending Los Angeles Center
Thu 02:43:23 PM 35.1297 -115.9486 232° Southwest 423 487 26,300 -995 Descending Los Angeles Center
Thu 02:44:25 PM 35.0597 -116.0569 232° Southwest 411 473 25,400 -919 Descending Los Angeles Center
Thu 02:45:27 PM 34.9894 -116.1661 232° Southwest 410 472 24,400 -968 Descending Los Angeles Center
Thu 02:46:29 PM 34.9175 -116.2722 230° Southwest 406 467 23,400 -1,016 Descending Los Angeles Center
Thu 02:47:31 PM 34.8433 -116.3875 232° Southwest 417 480 22,300 -1,113 Descending Los Angeles Center
Thu 02:48:33 PM 34.7897 -116.5431 247° West 428 493 21,100 -1,113 Descending Los Angeles Center
Thu 02:49:35 PM 34.7747 -116.6833 263° West 421 484 20,000 -528 Descending Los Angeles Center
Thu 02:50:38 PM 34.7622 -116.8244 264° West 420 483 20,000  Level Los Angeles Center
Thu 02:51:40 PM 34.7475 -116.9650 263° West 419 482 20,000  Level Los Angeles Center
Thu 02:52:42 PM 34.7322 -117.1056 263° West 419 482 20,000 -532 Level Los Angeles Center
Thu 02:53:44 PM 34.7181 -117.2447 263° West 416 479 18,900 -1,113 Descending Los Angeles Center
Thu 02:54:46 PM 34.7028 -117.3922 263° West 431 496 17,700 -1,355 Descending Los Angeles Center
Thu 02:55:48 PM 34.6825 -117.5878 263° West 478 550 16,100 -1,403 Descending Los Angeles Center
Thu 02:56:50 PM 34.6658 -117.7394 262° West 453 521 14,800 -1,113 Descending Los Angeles Center
Thu 02:57:52 PM 34.6533 -117.8608 263° West 373 429 13,800 -1,008 Descending Los Angeles Center
Thu 02:58:55 PM 34.6419 -117.9733 263° West 340 391 12,700 -1,095 Descending Los Angeles Center
Thu 03:00:09 PM 34.6247 -118.0847 259° West 337 388 11,300 -1,324 Descending Los Angeles Center
Thu 03:01:11 PM 34.5892 -118.1953 249° West 322 371 9,700 -1,548 Descending Los Angeles Center
Thu 03:02:13 PM 34.5522 -118.3022 247° West 291 335 8,100 -816 Descending Los Angeles Center
Thu 03:03:16 PM 34.5219 -118.3925 248° West 288 331 8,000 -336 Descending Los Angeles Center
Thu 03:04:18 PM 34.4858 -118.4989 248° West 286 329 7,400 -774 Descending Los Angeles Center
Thu 03:05:20 PM 34.4558 -118.5875 248° West 285 328 6,400 -677 Descending Los Angeles Center
Thu 03:06:22 PM 34.4025 -118.6575 227° Southwest 296 341 6,000 -290 Descending Los Angeles Center
Thu 03:08:26 PM 34.2903 -118.7778 222° Southwest 264 304 5,500 -581 Descending Los Angeles Center
Thu 03:09:28 PM 34.2361 -118.8347 221° Southwest 223 257 4,200 -683 Descending Los Angeles Center
Thu 03:10:29 PM 34.1942 -118.8850 225° Southwest 209 241 4,100 -248 Descending Los Angeles Center
Thu 03:11:29 PM 34.1947 -118.9550 271° West 206 237 3,700 -476 Descending Los Angeles Center
Thu 03:12:35 PM 34.1986 -119.0272 274° West 208 239 3,100 -797 Descending Los Angeles Center
Thu 03:13:37 PM 34.1997 -119.0833 271° West 139 160 2,000 -885 Descending Los Angeles Center
Thu 03:14:37 PM 34.2014 -119.1297 273° West 123 142 1,300 -694 Descending Los Angeles Center
Thu 03:15:38 PM 34.2019 -119.1711 271° West 123 142 600 -689 Descending Los Angeles Center
Thu 03:17:00 PM 34.2000 -119.2000 270° West  Level FlightAware Approximate
Thu 03:24:00 PM 34.2008 -119.2072 270° West  Level Estimated

Login

Don't have an account? Register now (free) for customized features, flight alerts, and more!